2MA8 weather

Compaq Stow Heliport
Stow, Massachusetts, United States

Public forecast

Using degrees Fahrenheit for public forecast. Weather courtesy of forecast.io.

METAR (pilot weather report)

Closest report is Laurence G Hanscom Field, 11.4 nm (21.2 km) ENE. Retrieved 2019/09/19 04:51 UTC (22 minutes ago):

KBED 190451Z AUTO 00000KT 10SM CLR 06/03 A3033 RMK AO2 SLP286 T00610028 401890056

TAF (pilot weather forecast)

Forecast is more than 12 hours old.

Closest forecast is Laurence G Hanscom Field, 11.4 nm (21.2 km) ENE. Retrieved 2019/09/18 00:22 UTC (1 day ago):

TAF KBED 182320Z 1900/1924 08005KT P6SM SKC FM190200 04003KT P6SM SKC FM191100 34003KT P6SM SKC FM191400 02004KT P6SM SKC FM191900 06004KT P6SM SKC